Time;durP1;ratioP1;P1;durP2;ratioP2;P2;SDS_P1;SDS_P2;PMS_P1;PMS_P2;Temp;Humidity;BMP_temperature;BMP_pressure;BME280_temperature;BME280_humidity;BME280_pressure;Samples;Min_cycle;Max_cycle;Signal;HPM_P1;HPM_P2
2022/10/10 00:01:17;;;;;;;27.30;14.63;;;6.00;99.90;;;;;;4768937;30;20201;-85
2022/10/10 00:03:44;;;;;;;27.43;14.20;;;5.90;99.90;;;;;;4784473;30;20584;-80
2022/10/10 00:06:11;;;;;;;28.33;14.93;;;5.90;99.90;;;;;;4754383;30;20235;-81
2022/10/10 00:08:39;;;;;;;26.73;14.67;;;5.90;99.90;;;;;;4754602;30;20203;-85
2022/10/10 00:11:06;;;;;;;26.73;14.60;;;5.90;99.90;;;;;;4770451;30;20203;-81
2022/10/10 00:13:33;;;;;;;27.13;14.27;;;6.00;99.90;;;;;;4754192;30;20210;-78
2022/10/10 00:16:00;;;;;;;27.20;14.27;;;6.00;99.90;;;;;;4754482;30;20211;-81
2022/10/10 00:18:27;;;;;;;25.87;13.70;;;6.00;99.90;;;;;;4753971;30;20235;-82
2022/10/10 00:20:55;;;;;;;25.17;13.53;;;5.90;99.90;;;;;;4770151;30;20598;-81
2022/10/10 00:23:22;;;;;;;29.87;14.53;;;5.90;99.90;;;;;;4754051;30;20212;-80
2022/10/10 00:25:48;;;;;;;26.40;13.90;;;5.80;99.90;;;;;;4754315;30;20288;-80
2022/10/10 00:28:16;;;;;;;26.43;14.53;;;5.80;99.90;;;;;;4770121;30;20634;-81
2022/10/10 00:30:44;;;;;;;28.57;14.60;;;5.80;99.90;;;;;;4754572;30;20203;-80
2022/10/10 00:33:11;;;;;;;27.90;14.23;;;5.80;99.90;;;;;;4754061;30;20210;-83
2022/10/10 00:35:38;;;;;;;26.20;14.17;;;5.70;99.90;;;;;;4754024;30;20570;-82
2022/10/10 00:38:05;;;;;;;26.37;14.10;;;5.60;99.90;;;;;;4754104;30;20247;-81
2022/10/10 00:40:32;;;;;;;28.30;15.07;;;5.60;99.90;;;;;;4754848;30;20195;-83
2022/10/10 00:42:59;;;;;;;27.07;14.63;;;5.60;99.90;;;;;;4784272;30;20223;-82
2022/10/10 00:45:37;;;;;;;24.47;13.93;;;5.60;99.90;;;;;;4783712;29;20303;-80
2022/10/10 00:48:07;;;;;;;28.00;13.50;;;5.60;99.90;;;;;;4754377;30;20293;-81
2022/10/10 00:50:49;;;;;;;27.27;14.47;;;5.50;99.90;;;;;;4769941;30;20280;-81
2022/10/10 00:53:19;;;;;;;25.77;13.37;;;5.60;99.90;;;;;;4754158;30;20245;-81
2022/10/10 00:55:46;;;;;;;24.60;13.90;;;5.50;99.90;;;;;;4753982;30;20239;-80
2022/10/10 00:58:15;;;;;;;31.37;14.70;;;5.50;99.90;;;;;;4753907;30;20207;-81
2022/10/10 01:00:42;;;;;;;27.77;15.40;;;5.40;99.90;;;;;;4753789;30;20254;-81
2022/10/10 01:03:09;;;;;;;29.30;16.70;;;5.30;99.90;;;;;;4753890;30;20210;-83
2022/10/10 01:05:37;;;;;;;30.20;16.30;;;5.20;99.90;;;;;;4769588;30;20234;-80
2022/10/10 01:08:06;;;;;;;29.83;16.63;;;5.20;99.90;;;;;;4783656;29;20310;-75
2022/10/10 01:10:57;;;;;;;29.57;17.00;;;5.20;99.90;;;;;;4769839;30;20212;-79
2022/10/10 01:13:39;;;;;;;32.37;17.40;;;5.10;99.90;;;;;;4756890;30;20210;-82
2022/10/10 01:16:28;;;;;;;33.37;17.37;;;5.00;99.90;;;;;;4773490;30;20570;-81
2022/10/10 01:19:04;;;;;;;29.47;17.27;;;4.90;99.90;;;;;;4757392;30;20221;-77
2022/10/10 01:21:44;;;;;;;32.33;17.33;;;4.90;99.90;;;;;;4773292;30;20217;-81
2022/10/10 01:24:31;;;;;;;34.77;17.27;;;4.80;99.90;;;;;;4757036;30;20212;-80
2022/10/10 01:27:32;;;;;;;29.47;16.77;;;4.80;99.90;;;;;;4757466;30;20248;-78
2022/10/10 01:30:12;;;;;;;32.43;17.83;;;4.70;99.90;;;;;;4758692;30;20209;-78
2022/10/10 01:32:59;;;;;;;35.83;18.50;;;4.60;99.90;;;;;;4765556;30;20200;-76
2022/10/10 01:35:41;;;;;;;32.47;17.50;;;4.60;99.90;;;;;;4774399;30;20548;-84
2022/10/10 01:38:30;;;;;;;34.37;18.50;;;4.50;99.90;;;;;;4756952;30;20212;-81
2022/10/10 01:40:59;;;;;;;35.00;18.97;;;4.40;99.90;;;;;;4756457;30;20675;-80
2022/10/10 01:43:26;;;;;;;33.57;18.60;;;4.30;99.90;;;;;;4786072;30;20223;-80
2022/10/10 01:45:53;;;;;;;39.27;20.33;;;4.30;99.90;;;;;;4785849;30;20535;-82
2022/10/10 01:48:30;;;;;;;34.77;19.50;;;4.30;99.90;;;;;;4786529;30;20601;-81
2022/10/10 01:51:16;;;;;;;35.73;19.07;;;4.30;99.90;;;;;;4756524;30;20205;-80
2022/10/10 01:54:03;;;;;;;30.60;18.77;;;4.20;99.90;;;;;;4772208;30;20202;-84
2022/10/10 01:56:48;;;;;;;33.77;18.30;;;4.10;99.90;;;;;;4756167;30;20210;-79
2022/10/10 01:59:52;;;;;;;38.20;18.47;;;4.10;99.90;;;;;;4755970;30;20242;-81
2022/10/10 02:02:33;;;;;;;34.67;18.07;;;4.00;99.90;;;;;;4755880;30;20236;-80
2022/10/10 02:05:25;;;;;;;34.03;18.37;;;4.00;99.90;;;;;;4785428;30;20214;-81
2022/10/10 02:08:10;;;;;;;36.03;19.27;;;4.10;99.90;;;;;;4756107;30;20229;-81
2022/10/10 02:10:47;;;;;;;32.33;18.23;;;4.10;99.90;;;;;;4755926;30;20205;-81
2022/10/10 02:13:16;;;;;;;32.77;18.17;;;4.20;99.90;;;;;;4756226;30;20204;-79
2022/10/10 02:15:56;;;;;;;32.23;17.63;;;4.20;99.90;;;;;;4756009;30;20214;-77
2022/10/10 02:18:27;;;;;;;27.60;16.50;;;4.20;99.90;;;;;;4755863;30;20232;-79
2022/10/10 02:20:55;;;;;;;29.63;17.10;;;4.30;99.90;;;;;;4771581;30;20671;-77
2022/10/10 02:23:22;;;;;;;33.97;17.33;;;4.40;99.90;;;;;;4784642;30;20285;-79
2022/10/10 02:25:54;;;;;;;29.97;17.63;;;4.30;99.90;;;;;;4771869;30;20338;-78
2022/10/10 02:28:30;;;;;;;30.03;16.67;;;4.20;99.90;;;;;;4756016;30;20265;-78
2022/10/10 02:31:02;;;;;;;30.33;16.67;;;4.10;99.90;;;;;;4785648;30;20600;-79
2022/10/10 02:33:44;;;;;;;31.97;17.27;;;4.10;99.90;;;;;;4755897;30;20263;-79
2022/10/10 02:36:13;;;;;;;28.90;16.13;;;4.00;99.90;;;;;;4755849;30;20285;-78
2022/10/10 02:38:41;;;;;;;29.23;16.10;;;3.90;99.90;;;;;;4785793;30;20206;-79
2022/10/10 02:41:13;;;;;;;28.23;16.13;;;3.90;99.90;;;;;;4755438;30;20204;-79
2022/10/10 02:43:40;;;;;;;28.63;15.63;;;3.80;99.90;;;;;;4755503;30;20208;-79
2022/10/10 02:46:10;;;;;;;27.07;16.10;;;3.70;99.90;;;;;;4785362;30;20259;-79
2022/10/10 02:48:37;;;;;;;29.17;16.67;;;3.60;99.90;;;;;;4755012;30;20545;-78
2022/10/10 02:51:05;;;;;;;27.23;16.13;;;3.60;99.90;;;;;;4770086;30;20619;-77
2022/10/10 02:53:35;;;;;;;29.63;16.93;;;3.60;99.90;;;;;;4755677;30;20205;-78
2022/10/10 02:56:02;;;;;;;34.03;17.13;;;3.50;99.90;;;;;;4755467;30;20217;-80
2022/10/10 02:58:29;;;;;;;32.97;16.80;;;3.50;99.90;;;;;;4755721;30;20276;-79
2022/10/10 03:00:56;;;;;;;28.43;16.47;;;3.40;99.90;;;;;;4755086;30;20236;-77
2022/10/10 03:03:24;;;;;;;36.10;17.37;;;3.40;99.90;;;;;;4784982;29;20214;-79
2022/10/10 03:05:51;;;;;;;28.00;16.37;;;3.40;99.90;;;;;;4770837;30;20205;-79
2022/10/10 03:08:18;;;;;;;30.40;16.70;;;3.30;99.90;;;;;;4784769;30;20248;-77
2022/10/10 03:11:01;;;;;;;31.83;16.90;;;3.30;99.90;;;;;;4771089;30;20220;-80
2022/10/10 03:13:28;;;;;;;29.13;16.00;;;3.30;99.90;;;;;;4784643;30;20220;-79
2022/10/10 03:15:55;;;;;;;27.60;15.80;;;3.30;99.90;;;;;;4770874;30;20300;-79
2022/10/10 03:18:22;;;;;;;32.93;16.83;;;3.20;99.90;;;;;;4784613;29;20264;-80
2022/10/10 03:20:54;;;;;;;32.50;16.90;;;3.20;99.90;;;;;;4754484;30;20212;-81
2022/10/10 03:23:23;;;;;;;29.87;15.90;;;3.20;99.90;;;;;;4784322;30;20312;-80
2022/10/10 03:25:50;;;;;;;28.13;15.50;;;3.30;99.90;;;;;;4754559;30;20644;-82
2022/10/10 03:28:17;;;;;;;28.23;15.57;;;3.20;99.90;;;;;;4754509;30;20241;-79
2022/10/10 03:30:45;;;;;;;28.60;15.57;;;3.20;99.90;;;;;;4754549;30;20210;-79
2022/10/10 03:33:12;;;;;;;26.97;15.27;;;3.20;99.90;;;;;;4784569;29;20733;-79
2022/10/10 03:35:40;;;;;;;27.40;15.37;;;3.20;99.90;;;;;;4770475;30;20208;-79
2022/10/10 03:38:06;;;;;;;26.83;14.90;;;3.20;99.90;;;;;;4784479;30;20220;-80
2022/10/10 03:40:37;;;;;;;28.27;14.60;;;3.20;99.90;;;;;;4754816;30;20215;-79
2022/10/10 03:43:04;;;;;;;24.17;14.63;;;3.10;99.90;;;;;;4754598;30;20201;-79
2022/10/10 03:45:31;;;;;;;25.13;14.87;;;3.00;99.90;;;;;;4784318;30;20212;-79
2022/10/10 03:47:57;;;;;;;24.13;14.53;;;3.00;99.90;;;;;;4755054;30;20227;-80
2022/10/10 03:50:25;;;;;;;27.63;14.63;;;3.00;99.90;;;;;;4784085;29;20296;-79
2022/10/10 03:52:52;;;;;;;25.70;14.37;;;3.00;99.90;;;;;;4770207;30;20684;-79
2022/10/10 03:55:19;;;;;;;26.37;14.30;;;2.90;99.90;;;;;;4754473;30;20216;-79
2022/10/10 03:57:46;;;;;;;26.67;15.00;;;2.90;99.90;;;;;;4770244;30;20210;-80
2022/10/10 04:00:13;;;;;;;25.17;14.07;;;2.90;99.90;;;;;;4784001;29;20238;-77
2022/10/10 04:02:40;;;;;;;26.93;14.87;;;2.90;99.90;;;;;;4754600;30;20205;-79
2022/10/10 04:05:07;;;;;;;25.93;13.60;;;2.80;99.90;;;;;;4783922;30;20205;-79
2022/10/10 04:07:33;;;;;;;27.13;15.27;;;2.90;99.90;;;;;;4754126;30;20248;-78
2022/10/10 04:10:00;;;;;;;26.43;14.60;;;2.80;99.90;;;;;;4783886;30;20636;-79
2022/10/10 04:12:27;;;;;;;25.03;14.47;;;2.80;99.90;;;;;;4769533;30;20688;-77
2022/10/10 04:14:54;;;;;;;26.07;14.27;;;2.80;99.90;;;;;;4769937;30;20268;-79
2022/10/10 04:17:21;;;;;;;24.77;14.90;;;2.80;99.90;;;;;;4783579;29;20228;-78
2022/10/10 04:19:48;;;;;;;27.10;13.97;;;2.80;99.90;;;;;;4770327;30;20240;-77
2022/10/10 04:22:15;;;;;;;26.50;15.00;;;2.80;99.90;;;;;;4783237;30;20683;-79
2022/10/10 04:24:42;;;;;;;26.43;13.93;;;2.80;99.90;;;;;;4783415;30;20209;-79
2022/10/10 04:27:10;;;;;;;24.70;14.13;;;2.80;99.90;;;;;;4770048;30;20675;-79
2022/10/10 04:29:37;;;;;;;25.40;13.63;;;2.80;99.90;;;;;;4753772;30;20228;-78
2022/10/10 04:32:04;;;;;;;24.87;13.50;;;2.80;99.90;;;;;;4769789;30;20206;-80
2022/10/10 04:34:33;;;;;;;23.43;13.47;;;2.90;99.90;;;;;;4753756;30;20205;-78
2022/10/10 04:37:00;;;;;;;27.83;14.77;;;2.90;99.90;;;;;;4769534;30;20198;-79
2022/10/10 04:39:27;;;;;;;26.27;14.50;;;2.90;99.90;;;;;;4770403;30;20243;-79
2022/10/10 04:41:54;;;;;;;24.30;13.90;;;2.90;99.90;;;;;;4784171;30;20712;-79
2022/10/10 04:44:21;;;;;;;24.87;14.10;;;2.90;99.90;;;;;;4769910;30;20599;-79
2022/10/10 04:46:48;;;;;;;25.13;13.80;;;2.90;99.90;;;;;;4772776;30;20744;-78
2022/10/10 04:49:15;;;;;;;23.73;13.97;;;2.90;99.90;;;;;;4786771;30;20255;-80
2022/10/10 04:51:41;;;;;;;25.57;13.77;;;2.90;99.90;;;;;;4756852;30;20258;-81
2022/10/10 04:54:09;;;;;;;25.80;13.90;;;2.90;99.90;;;;;;4786596;29;20307;-80
2022/10/10 04:56:36;;;;;;;24.83;13.53;;;2.80;99.90;;;;;;4772918;30;20197;-79
2022/10/10 04:59:03;;;;;;;27.00;14.03;;;2.80;99.90;;;;;;4786317;29;20212;-80
2022/10/10 05:01:30;;;;;;;24.70;13.43;;;2.80;99.90;;;;;;4786606;30;20212;-80
2022/10/10 05:03:58;;;;;;;23.63;13.83;;;2.80;99.90;;;;;;4757171;30;20560;-79
2022/10/10 05:06:24;;;;;;;26.27;14.33;;;2.80;99.90;;;;;;4756793;30;20205;-80
2022/10/10 05:08:51;;;;;;;24.03;13.33;;;2.80;99.90;;;;;;4786608;30;20246;-79
2022/10/10 05:11:18;;;;;;;25.40;14.57;;;2.80;99.90;;;;;;4786823;29;20211;-79
2022/10/10 05:13:45;;;;;;;27.30;13.83;;;2.90;99.90;;;;;;4786806;30;20587;-79
2022/10/10 05:16:12;;;;;;;27.87;14.40;;;2.90;99.90;;;;;;4757127;30;20201;-80
2022/10/10 05:18:56;;;;;;;25.40;14.30;;;3.00;99.90;;;;;;4756398;30;20224;-81
2022/10/10 05:21:23;;;;;;;24.03;13.53;;;2.90;99.90;;;;;;4756209;30;20212;-80
2022/10/10 05:23:52;;;;;;;23.57;13.87;;;2.80;99.90;;;;;;4785761;29;20202;-78
2022/10/10 05:26:39;;;;;;;25.27;13.70;;;2.80;99.90;;;;;;4793732;24;20340;-80
2022/10/10 05:29:09;;;;;;;25.03;14.00;;;2.80;99.90;;;;;;4956261;24;20247;-80
2022/10/10 05:32:56;;;;;;;24.73;13.57;;;2.90;99.90;;;;;;4808285;29;20280;-79
2022/10/10 05:35:23;;;;;;;29.17;14.63;;;2.90;99.90;;;;;;4792013;29;20295;-81
2022/10/10 05:37:52;;;;;;;29.07;15.07;;;2.90;99.90;;;;;;4792195;29;20212;-81
2022/10/10 05:40:19;;;;;;;25.50;14.37;;;3.00;99.90;;;;;;4792137;29;20207;-80
2022/10/10 05:42:49;;;;;;;27.77;14.87;;;3.10;99.90;;;;;;4777254;29;20211;-81
2022/10/10 05:45:16;;;;;;;31.00;15.50;;;3.10;99.90;;;;;;4792118;29;20206;-81
2022/10/10 05:47:43;;;;;;;26.40;14.23;;;3.20;99.90;;;;;;4791761;29;20228;-81
2022/10/10 05:50:35;;;;;;;28.83;14.87;;;3.30;99.90;;;;;;4792033;29;20254;-78
2022/10/10 05:53:02;;;;;;;28.47;15.10;;;3.40;99.90;;;;;;4791664;29;20273;-78
2022/10/10 05:55:29;;;;;;;29.97;15.23;;;3.40;99.90;;;;;;4791281;29;20257;-80
2022/10/10 05:57:56;;;;;;;33.30;15.43;;;3.50;99.90;;;;;;4790143;29;20214;-80
2022/10/10 06:00:23;;;;;;;32.07;15.37;;;3.60;99.90;;;;;;4791519;29;20208;-79
2022/10/10 06:02:50;;;;;;;31.03;14.40;;;3.70;99.90;;;;;;4808164;29;20532;-80
2022/10/10 06:05:17;;;;;;;33.73;15.17;;;3.80;99.90;;;;;;4791941;29;20219;-82
2022/10/10 06:07:44;;;;;;;30.00;14.10;;;3.90;99.90;;;;;;4791113;29;20244;-81
2022/10/10 06:10:36;;;;;;;32.03;14.63;;;4.00;99.90;;;;;;4791212;29;20208;-82
2022/10/10 06:13:03;;;;;;;34.00;14.60;;;4.10;99.90;;;;;;4791302;29;20266;-82
2022/10/10 06:15:30;;;;;;;29.43;14.27;;;4.20;99.90;;;;;;4791242;29;20291;-84
2022/10/10 06:17:57;;;;;;;32.33;14.17;;;4.30;99.90;;;;;;4802508;29;20235;-80
2022/10/10 06:20:24;;;;;;;31.03;14.07;;;4.40;99.90;;;;;;4773355;30;20204;-79
2022/10/10 06:22:51;;;;;;;26.80;12.30;;;4.40;99.90;;;;;;4773404;30;20655;-80
2022/10/10 06:25:19;;;;;;;26.80;13.20;;;4.40;99.90;;;;;;4773844;30;20216;-81
2022/10/10 06:28:09;;;;;;;24.73;12.27;;;4.40;99.90;;;;;;4774581;30;20229;-80
2022/10/10 06:30:43;;;;;;;25.57;12.37;;;4.50;99.90;;;;;;4773049;30;20206;-83
2022/10/10 06:33:11;;;;;;;27.70;13.03;;;4.70;99.90;;;;;;4773506;30;20215;-81
2022/10/10 06:35:42;;;;;;;24.03;12.13;;;4.60;99.90;;;;;;4773694;30;20634;-81
2022/10/10 06:38:10;;;;;;;26.53;12.90;;;4.70;99.90;;;;;;4773111;30;20215;-80
2022/10/10 06:40:40;;;;;;;27.07;13.13;;;4.80;99.90;;;;;;4773086;30;20208;-81
2022/10/10 06:43:12;;;;;;;28.97;13.30;;;4.90;99.90;;;;;;4773916;30;20210;-83
2022/10/10 06:45:41;;;;;;;29.33;14.23;;;4.90;99.90;;;;;;4772630;30;20206;-81
2022/10/10 06:48:10;;;;;;;27.90;13.43;;;5.00;99.90;;;;;;4789432;30;20255;-81
2022/10/10 06:50:37;;;;;;;28.97;13.53;;;5.00;99.90;;;;;;4758883;30;20223;-82
2022/10/10 06:53:04;;;;;;;28.93;14.57;;;5.00;99.90;;;;;;4773225;30;20244;-81
2022/10/10 06:55:31;;;;;;;30.23;14.77;;;5.10;99.90;;;;;;4789621;30;20200;-80
2022/10/10 06:57:58;;;;;;;28.27;14.23;;;5.20;99.90;;;;;;4789392;29;20204;-82
2022/10/10 07:00:25;;;;;;;31.57;14.70;;;5.30;99.90;;;;;;4773551;30;20208;-83
2022/10/10 07:02:52;;;;;;;29.10;15.33;;;5.30;99.90;;;;;;4787829;30;20274;-83
2022/10/10 07:05:20;;;;;;;29.67;14.87;;;5.50;99.90;;;;;;4786576;30;20306;-81
2022/10/10 07:07:46;;;;;;;29.53;15.57;;;5.60;99.90;;;;;;4789777;29;20272;-78
2022/10/10 07:10:19;;;;;;;30.47;14.50;;;5.70;99.90;;;;;;4790539;24;20242;-80
2022/10/10 07:12:49;;;;;;;29.30;15.53;;;5.80;99.90;;;;;;4808155;29;20281;-81
2022/10/10 07:15:16;;;;;;;29.60;15.00;;;5.90;99.90;;;;;;4791011;29;20206;-80
2022/10/10 07:18:28;;;;;;;29.87;15.40;;;5.90;99.90;;;;;;4789764;29;20656;-83
2022/10/10 07:21:37;;;;;;;28.37;15.00;;;6.00;99.90;;;;;;4648439;30;20265;-81
2022/10/10 07:24:16;;;;;;;29.93;15.63;;;6.10;99.90;;;;;;4683682;30;20209;-86
2022/10/10 07:28:09;;;;;;;27.13;15.27;;;6.20;99.90;;;;;;5057498;24;20249;-84
2022/10/10 07:31:21;;;;;;;32.37;15.83;;;6.40;99.90;;;;;;4791414;29;20214;-81
2022/10/10 07:38:04;;;;;;;33.83;18.00;;;6.60;99.90;;;;;;4815255;24;20772;-82
2022/10/10 07:40:32;;;;;;;38.23;18.93;;;6.80;99.90;;;;;;4791487;24;20252;-78
2022/10/10 07:43:05;;;;;;;40.40;21.43;;;7.00;99.90;;;;;;4772211;30;20227;-82
2022/10/10 07:46:32;;;;;;;42.40;22.07;;;7.00;99.90;;;;;;4766129;24;20222;-86
2022/10/10 07:48:59;;;;;;;41.47;21.70;;;7.30;99.90;;;;;;4773156;30;20342;-89
2022/10/10 07:51:27;;;;;;;42.90;22.30;;;7.40;99.90;;;;;;4774033;30;20571;-91
2022/10/10 07:54:42;;;;;;;37.73;20.67;;;7.40;99.90;;;;;;4761027;30;20222;-92
2022/10/10 07:57:17;;;;;;;35.67;18.77;;;8.10;99.90;;;;;;4790403;30;20230;-84
2022/10/10 07:59:44;;;;;;;29.87;17.57;;;9.20;99.90;;;;;;4773004;30;20245;-84
2022/10/10 08:02:11;;;;;;;30.40;17.17;;;9.80;99.90;;;;;;4773266;30;20227;-81
2022/10/10 08:04:39;;;;;;;28.30;15.97;;;10.40;99.90;;;;;;4772575;30;20659;-81
2022/10/10 08:07:06;;;;;;;27.00;14.63;;;10.60;99.90;;;;;;4773334;30;20200;-86
2022/10/10 08:09:33;;;;;;;24.40;14.37;;;10.90;99.90;;;;;;4773385;30;20300;-84
2022/10/10 08:12:00;;;;;;;23.87;13.77;;;11.30;99.90;;;;;;4788850;30;20590;-84
2022/10/10 08:14:28;;;;;;;23.50;13.80;;;11.60;99.90;;;;;;4771873;30;20731;-76
2022/10/10 08:16:55;;;;;;;20.33;12.93;;;11.80;99.90;;;;;;4771803;30;20211;-87
2022/10/10 08:19:22;;;;;;;20.07;12.73;;;12.00;99.90;;;;;;4759804;30;20229;-81
2022/10/10 08:21:51;;;;;;;20.40;12.93;;;12.50;99.90;;;;;;4773494;30;20216;-81
2022/10/10 08:24:22;;;;;;;17.30;10.97;;;12.70;99.90;;;;;;4758089;30;20209;-85
2022/10/10 08:26:50;;;;;;;21.10;10.63;;;12.90;99.90;;;;;;4757912;30;20204;-84
2022/10/10 08:29:17;;;;;;;16.80;10.27;;;12.90;99.90;;;;;;4773663;30;20719;-79
2022/10/10 08:31:43;;;;;;;18.90;10.47;;;12.90;99.90;;;;;;4757695;30;20220;-80
2022/10/10 08:34:14;;;;;;;16.67;9.67;;;13.00;99.90;;;;;;4757581;30;20204;-86
2022/10/10 08:36:57;;;;;;;14.17;8.67;;;13.30;99.90;;;;;;4756651;30;20216;-89
2022/10/10 08:39:31;;;;;;;14.97;8.73;;;13.30;99.90;;;;;;4774253;30;20291;-85
2022/10/10 08:42:02;;;;;;;14.13;8.67;;;13.30;99.90;;;;;;4757423;30;20220;-91
2022/10/10 08:45:22;;;;;;;15.20;8.47;;;13.30;99.90;;;;;;4757706;30;20671;-87
2022/10/10 08:48:16;;;;;;;12.30;7.97;;;13.50;99.90;;;;;;4771399;30;20241;-87
2022/10/10 08:50:59;;;;;;;13.40;8.03;;;13.70;99.90;;;;;;4757809;30;20204;-91
2022/10/10 08:53:39;;;;;;;12.87;7.70;;;14.20;99.90;;;;;;4757924;30;20652;-92
2022/10/10 08:56:34;;;;;;;10.77;6.90;;;14.60;99.90;;;;;;4759076;30;20205;-84
2022/10/10 08:59:19;;;;;;;12.07;7.07;;;15.00;99.90;;;;;;4759208;30;20209;-82
2022/10/10 09:01:49;;;;;;;11.77;7.27;;;15.10;99.90;;;;;;4756348;30;20224;-85
2022/10/10 09:04:39;;;;;;;11.07;7.27;;;15.40;99.90;;;;;;4773611;30;20614;-77
2022/10/10 09:07:23;;;;;;;10.90;6.53;;;15.50;99.90;;;;;;4859444;24;20190;-86
2022/10/10 09:21:40;;;;;;;9.23;6.00;;;16.00;99.90;;;;;;4819450;24;20717;-86
2022/10/10 09:36:59;;;;;;;9.13;5.37;;;17.40;99.90;;;;;;4966563;24;20251;-86
2022/10/10 09:55:49;;;;;;;5.77;3.67;;;18.20;99.90;;;;;;4925907;24;20195;-89
2022/10/10 09:58:59;;;;;;;7.10;3.80;;;17.80;99.90;;;;;;4752764;30;20218;-87
2022/10/10 10:15:32;;;;;;;6.07;3.03;;;19.10;99.90;;;;;;4759942;24;20239;-86
2022/10/10 10:28:38;;;;;;;6.27;3.97;;;20.00;99.90;;;;;;5386362;24;20263;-91
2022/10/10 11:02:18;;;;;;;4.25;2.47;;;20.80;98.10;;;;;;4733077;24;20480;-88
2022/10/10 11:12:10;;;;;;;3.43;2.30;;;21.50;97.10;;;;;;4814144;24;20235;-93
2022/10/10 11:19:00;;;;;;;;;;;;;;;;;;;;;
2022/10/10 11:34:16;;;;;;;4.17;2.20;;;23.20;90.30;;;;;;4805606;29;20236;-89
2022/10/10 12:05:07;;;;;;;;;;;;;;;;;;;;;
2022/10/10 12:34:35;;;;;;;5.03;3.17;;;25.10;72.50;;;;;;5806779;24;20188;-92
2022/10/10 12:48:37;;;;;;;4.27;2.80;;;22.10;77.90;;;;;;5008223;24;20240;-89
2022/10/10 13:03:57;;;;;;;4.50;2.30;;;19.50;88.40;;;;;;4385509;24;20683;-88
2022/10/10 13:06:38;;;;;;;5.30;2.20;;;19.00;89.90;;;;;;4759817;30;20207;-86
2022/10/10 13:09:18;;;;;;;3.63;2.00;;;18.50;90.40;;;;;;4775457;30;20224;-84
2022/10/10 13:11:55;;;;;;;4.10;2.10;;;17.90;90.60;;;;;;4791513;29;20777;-84
2022/10/10 13:14:24;;;;;;;5.60;2.00;;;17.80;90.80;;;;;;4775067;30;20239;-87
2022/10/10 13:16:51;;;;;;;3.80;1.90;;;17.40;91.20;;;;;;4776404;30;20196;-90
2022/10/10 13:23:02;;;;;;;3.80;2.00;;;17.20;92.60;;;;;;4795959;24;20264;-87
2022/10/10 13:32:45;;;;;;;3.23;2.23;;;16.60;93.10;;;;;;5077548;24;20288;-83
2022/10/10 13:35:19;;;;;;;3.63;1.85;;;16.50;94.10;;;;;;4774868;30;20459;-87
2022/10/10 13:37:57;;;;;;;3.73;2.23;;;16.60;94.20;;;;;;4774924;30;20199;-86
2022/10/10 13:40:25;;;;;;;3.73;1.80;;;16.50;94.90;;;;;;4760585;30;20209;-84
2022/10/10 13:42:53;;;;;;;4.90;1.73;;;16.50;94.50;;;;;;4790984;29;20553;-83
2022/10/10 13:45:36;;;;;;;2.33;1.50;;;16.60;94.60;;;;;;4780749;30;20567;-92
2022/10/10 13:50:47;;;;;;;2.93;1.50;;;16.50;94.30;;;;;;4978626;24;20241;-91
2022/10/10 14:05:02;;;;;;;2.80;1.53;;;16.40;95.30;;;;;;4754336;30;20253;-84
2022/10/10 14:07:30;;;;;;;2.57;1.70;;;16.20;95.60;;;;;;4778111;29;20679;-87
2022/10/10 14:10:43;;;;;;;5.53;1.70;;;16.20;95.50;;;;;;4755158;30;20285;-84
2022/10/10 14:14:55;;;;;;;2.40;1.40;;;16.20;95.40;;;;;;4737661;30;20205;-89
2022/10/10 14:20:30;;;;;;;3.07;1.50;;;16.10;95.40;;;;;;4794772;24;20717;-87
2022/10/10 14:25:59;;;;;;;2.83;1.50;;;15.90;95.70;;;;;;4734113;30;20225;-86
2022/10/10 14:28:30;;;;;;;2.80;1.60;;;15.90;95.70;;;;;;4736960;30;20696;-85
2022/10/10 14:34:58;;;;;;;2.70;1.60;;;15.80;95.90;;;;;;4749606;30;20423;-87
2022/10/10 14:52:58;;;;;;;4.23;1.60;;;15.10;96.90;;;;;;2171511;24;20236;-80
2022/10/10 14:55:26;;;;;;;3.50;1.67;;;15.10;97.40;;;;;;4773187;29;20200;-82
2022/10/10 14:57:53;;;;;;;2.67;1.50;;;15.00;97.60;;;;;;4762501;29;20208;-75
2022/10/10 15:00:22;;;;;;;3.93;1.70;;;14.90;97.80;;;;;;4772855;30;20235;-81
2022/10/10 15:02:49;;;;;;;4.70;1.60;;;14.90;97.90;;;;;;4788751;29;20229;-80
2022/10/10 15:05:35;;;;;;;4.40;1.90;;;14.90;98.00;;;;;;4772546;30;20565;-81
2022/10/10 15:08:02;;;;;;;1.77;1.40;;;14.80;98.20;;;;;;4789052;29;20295;-82
2022/10/10 15:10:29;;;;;;;2.50;1.60;;;14.80;98.50;;;;;;4802095;29;20224;-81
2022/10/10 15:13:02;;;;;;;4.50;1.77;;;14.70;98.90;;;;;;4772464;30;20331;-81
2022/10/10 15:15:29;;;;;;;2.53;1.95;;;14.60;99.20;;;;;;4772248;30;20460;-80
2022/10/10 15:17:58;;;;;;;4.00;2.00;;;14.50;99.60;;;;;;4772830;30;20216;-83
2022/10/10 15:20:29;;;;;;;5.30;1.90;;;14.50;99.90;;;;;;4771889;30;20239;-81
2022/10/10 15:23:07;;;;;;;3.20;2.00;;;14.40;99.90;;;;;;4772631;30;20212;-79
2022/10/10 15:28:37;;;;;;;4.78;2.22;;;14.20;99.90;;;;;;4800436;24;20465;-81
2022/10/10 15:31:05;;;;;;;4.23;2.10;;;14.10;99.90;;;;;;4795260;29;20203;-82
2022/10/10 15:33:35;;;;;;;3.77;2.13;;;14.00;99.90;;;;;;4789712;29;20293;-83
2022/10/10 15:36:22;;;;;;;4.80;2.40;;;14.00;99.90;;;;;;4802255;29;20676;-81
2022/10/10 15:41:37;;;;;;;4.60;2.67;;;13.80;99.90;;;;;;4791907;24;20452;-84
2022/10/10 15:45:04;;;;;;;6.60;2.70;;;13.80;99.90;;;;;;4739102;30;20259;-86
2022/10/10 15:47:38;;;;;;;6.90;2.70;;;13.60;99.90;;;;;;4771558;24;20323;-82
2022/10/10 15:50:12;;;;;;;5.37;2.93;;;13.60;99.90;;;;;;4781491;29;20341;-84
2022/10/10 15:52:40;;;;;;;4.20;2.60;;;13.50;99.90;;;;;;4797041;29;20259;-76
2022/10/10 15:55:07;;;;;;;4.83;2.93;;;13.50;99.90;;;;;;4814379;29;20203;-81
2022/10/10 15:57:34;;;;;;;6.33;3.40;;;13.50;99.90;;;;;;4798704;29;20203;-82
2022/10/10 16:00:10;;;;;;;5.33;3.03;;;13.40;99.90;;;;;;4804662;24;20307;-82
2022/10/10 16:02:37;;;;;;;8.37;3.83;;;13.30;99.90;;;;;;4798160;29;20207;-79
2022/10/10 16:05:18;;;;;;;7.33;3.10;;;13.20;99.90;;;;;;4798580;29;20293;-80
2022/10/10 16:07:45;;;;;;;7.87;3.47;;;13.10;99.90;;;;;;4789941;29;20203;-78
2022/10/10 16:10:22;;;;;;;8.60;3.23;;;13.00;99.90;;;;;;4823301;24;20292;-81
2022/10/10 16:12:53;;;;;;;8.23;3.60;;;13.00;99.90;;;;;;4904489;24;20238;-80
2022/10/10 16:15:44;;;;;;;7.10;3.37;;;13.00;99.90;;;;;;4797942;29;20199;-83
2022/10/10 16:18:49;;;;;;;6.43;3.10;;;12.90;99.90;;;;;;4799467;29;20666;-82
2022/10/10 16:21:19;;;;;;;7.60;3.33;;;12.80;99.90;;;;;;4793489;29;20314;-86
2022/10/10 16:23:48;;;;;;;5.77;3.23;;;12.70;99.90;;;;;;4784446;29;20204;-80
2022/10/10 16:26:27;;;;;;;6.43;3.70;;;12.80;99.90;;;;;;4758687;30;20200;-89
2022/10/10 16:28:55;;;;;;;6.50;3.57;;;12.60;99.90;;;;;;4774410;30;20250;-86
2022/10/10 16:31:22;;;;;;;6.37;3.70;;;12.60;99.90;;;;;;4774955;30;20211;-88
2022/10/10 16:33:50;;;;;;;6.80;3.77;;;12.50;99.90;;;;;;4790003;30;20538;-84
2022/10/10 16:36:23;;;;;;;9.93;3.60;;;12.40;99.90;;;;;;4773642;30;20246;-89
2022/10/10 16:38:52;;;;;;;7.97;3.80;;;12.40;99.90;;;;;;4773825;30;20295;-81
2022/10/10 16:41:19;;;;;;;6.10;3.53;;;12.40;99.90;;;;;;4769513;30;20257;-80
2022/10/10 16:44:06;;;;;;;7.13;3.87;;;12.30;99.90;;;;;;4775714;30;20276;-85
2022/10/10 16:46:33;;;;;;;7.27;3.63;;;12.20;99.90;;;;;;4792341;30;20226;-90
2022/10/10 16:49:15;;;;;;;8.67;4.30;;;12.10;99.90;;;;;;4777696;30;20243;-86
2022/10/10 16:51:42;;;;;;;7.53;4.47;;;12.10;99.90;;;;;;4792745;30;20547;-83
2022/10/10 16:54:09;;;;;;;6.83;4.20;;;12.00;99.90;;;;;;4775190;30;20311;-87
2022/10/10 16:56:37;;;;;;;8.30;4.63;;;12.00;99.90;;;;;;4775467;30;20261;-89
2022/10/10 16:59:04;;;;;;;9.90;5.00;;;11.90;99.90;;;;;;4776328;30;20212;-87
2022/10/10 17:01:31;;;;;;;9.40;5.20;;;11.80;99.90;;;;;;4775365;30;20212;-84
2022/10/10 17:03:59;;;;;;;7.40;4.90;;;11.80;99.90;;;;;;4775355;30;20301;-87
2022/10/10 17:06:28;;;;;;;11.80;5.30;;;11.70;99.90;;;;;;4775455;30;20425;-86
2022/10/10 17:09:10;;;;;;;8.20;5.53;;;11.70;99.90;;;;;;4775022;30;20287;-90
2022/10/10 17:11:37;;;;;;;11.23;5.70;;;11.60;99.90;;;;;;4775306;30;20212;-85
2022/10/10 17:14:04;;;;;;;10.27;5.37;;;11.60;99.90;;;;;;4774619;30;20697;-87
2022/10/10 17:16:31;;;;;;;9.77;5.83;;;11.50;99.90;;;;;;4774531;30;20231;-88
2022/10/10 17:19:17;;;;;;;10.03;5.90;;;11.60;99.90;;;;;;4774118;30;20612;-84
2022/10/10 17:21:44;;;;;;;12.57;5.67;;;11.50;99.90;;;;;;4774396;30;20228;-85
2022/10/10 17:24:12;;;;;;;11.40;6.10;;;11.40;99.90;;;;;;4774635;30;20303;-82
2022/10/10 17:26:38;;;;;;;12.00;6.47;;;11.30;99.90;;;;;;4773563;30;20591;-86
2022/10/10 17:29:06;;;;;;;11.53;6.07;;;11.40;99.90;;;;;;4776449;30;20296;-87
2022/10/10 17:31:33;;;;;;;14.23;6.43;;;11.30;99.90;;;;;;4782600;29;20201;-88
2022/10/10 17:34:00;;;;;;;14.77;6.30;;;11.30;99.90;;;;;;4770506;30;20562;-88